首页
METAR-TAF:

METAR-TAF

机场 :

布拉格瓦茨拉夫·哈維爾國際機場

布拉格, 捷克共和国

纬度: 50-06N, 经度: 014-15E, 海拔: 365米

当前天气观测

该预报发布于37分钟前的14:30 UTC
风速18节,风向西转西南
温度 9°C
湿度 71%
气压 1015 hPa
能见度10公里或以上
阴天层高于3300英尺

METAR: LKPR 231430Z 25018KT 9999 OVC033 09/04 Q1015 NOSIG

时间: 17:07 (15:07 UTC)

预报

该预报发布于4小时和7分钟前的11:00 UTC
预报有效从23日的 12点(UTC)到 24日的 18点(UTC)
风速18节,风向西,有时为32节阵风
能见度10公里或以上
散云层高于1800英尺
短暂存在
从 23日的 13点(UTC)到 24日的 02点(UTC)
风速24节,风向西转西北,有时为42节阵风
成为
从 23日的 13点(UTC)到 23日的 16点(UTC)
能見度: 8000
散云层高于1000英尺
多云层高于1600英尺
小雨
短暂存在
从 23日的 22点(UTC)到 24日的 01点(UTC)
能見度: 6000
多云层高于1300英尺
几率 30% :
短暂存在
从 24日的 03点(UTC)到 24日的 08点(UTC)
能見度: 4000
多云层高于1100英尺
雨, 轻雾
成为
从 24日的 02点(UTC)到 24日的 04点(UTC)
风速20节,风向西北,有时为38节阵风
成为
从 24日的 12点(UTC)到 24日的 15点(UTC)
风速14节,风向北转西北,有时为26节阵风
能见度10公里或以上
散云层高于3000英尺

TAF: LKPR 231100Z 2312/2418 27018G32KT 9999 SCT018 TEMPO 2313/2402 29024G42KT BECMG 2313/2316 8000 -RA SCT010 BKN016 TEMPO 2322/2401 6000 RA BKN013 PROB30 TEMPO 2403/2408 4000 RA BR BKN011 BECMG 2402/2404 32020G38KT BECMG 2412/2415 33014G26KT 9999 SCT030

超过4000个机场的气象观测和天气预报(METAR&TAF报告)。

可查询的气象台以黄色和红色小点在地图上表示。

将鼠标移到小点上方,可查看气象台名称。

然后点击查看天气观测和预报。

如需切换地图:点击带黑十字的绿色按钮放大地图;点击带横线的绿色按钮缩小地图;或者点击绿色箭头查看邻近地区的地图。


METAR-TAF: